Time;durP1;ratioP1;P1;durP2;ratioP2;P2;SDS_P1;SDS_P2;PMS_P1;PMS_P2;Temp;Humidity;BMP_temperature;BMP_pressure;BME280_temperature;BME280_humidity;BME280_pressure;Samples;Min_cycle;Max_cycle;Signal;HPM_P1;HPM_P2
2022/07/18 00:01:48;;;;;;;4.75;2.92;;;22.00;57.00;;;;;;4990536;28;20129;-73
2022/07/18 00:04:15;;;;;;;4.00;3.13;;;22.00;57.00;;;;;;4991408;28;20420;-73
2022/07/18 00:06:41;;;;;;;4.63;3.28;;;22.00;57.10;;;;;;4990445;28;20163;-73
2022/07/18 00:09:09;;;;;;;3.80;3.00;;;21.90;58.60;;;;;;4990664;28;20153;-73
2022/07/18 00:11:36;;;;;;;4.28;2.97;;;21.90;57.00;;;;;;4990616;28;20068;-73
2022/07/18 00:14:03;;;;;;;3.83;3.00;;;21.90;57.00;;;;;;4989706;28;20046;-73
2022/07/18 00:16:29;;;;;;;3.60;3.00;;;22.10;57.10;;;;;;4992852;28;20054;-73
2022/07/18 00:18:58;;;;;;;3.95;2.70;;;21.90;57.00;;;;;;4994033;28;20054;-73
2022/07/18 00:21:24;;;;;;;4.05;3.05;;;21.90;59.10;;;;;;4994428;28;20161;-73
2022/07/18 00:23:51;;;;;;;3.42;2.80;;;21.90;57.00;;;;;;4994381;28;20054;-73
2022/07/18 00:26:19;;;;;;;4.85;2.90;;;21.90;57.00;;;;;;4994399;28;20548;-73
2022/07/18 00:28:46;;;;;;;3.75;2.97;;;21.90;57.00;;;;;;4994219;28;20058;-73
2022/07/18 00:31:13;;;;;;;4.03;3.00;;;21.90;57.00;;;;;;4993808;28;20575;-73
2022/07/18 00:33:39;;;;;;;3.72;2.95;;;21.90;57.00;;;;;;4994878;28;20054;-73
2022/07/18 00:36:07;;;;;;;4.07;3.10;;;21.90;57.00;;;;;;4993856;28;20512;-73
2022/07/18 00:38:33;;;;;;;4.10;3.00;;;21.90;57.00;;;;;;4993718;28;20054;-73
2022/07/18 00:41:00;;;;;;;4.43;2.85;;;21.80;56.90;;;;;;4993861;28;20404;-73
2022/07/18 00:43:28;;;;;;;5.47;2.90;;;21.80;56.90;;;;;;4993934;28;20089;-73
2022/07/18 00:45:55;;;;;;;4.03;2.95;;;21.80;56.90;;;;;;4993721;28;20061;-73
2022/07/18 00:48:22;;;;;;;3.60;2.80;;;22.00;57.10;;;;;;4993730;28;20074;-73
2022/07/18 00:50:49;;;;;;;3.72;3.20;;;21.80;56.90;;;;;;4994015;28;20399;-73
2022/07/18 00:53:15;;;;;;;4.30;2.97;;;21.80;57.00;;;;;;4993751;28;20144;-73
2022/07/18 00:55:44;;;;;;;3.72;3.20;;;21.80;57.00;;;;;;4993808;28;20137;-73
2022/07/18 00:58:11;;;;;;;4.07;3.03;;;21.80;57.00;;;;;;4993382;28;20050;-73
2022/07/18 01:03:23;;;;;;;3.92;2.90;;;21.80;57.00;;;;;;4993225;28;20105;-73
2022/07/18 01:05:50;;;;;;;4.97;3.22;;;21.70;57.00;;;;;;4993671;28;20149;-73
2022/07/18 01:08:17;;;;;;;3.88;2.90;;;21.70;56.90;;;;;;4993527;28;20064;-73
2022/07/18 01:10:44;;;;;;;4.63;3.30;;;21.80;56.90;;;;;;4993344;28;20480;-73
2022/07/18 01:13:10;;;;;;;4.88;3.13;;;21.80;57.00;;;;;;4993511;28;20053;-73
2022/07/18 01:15:38;;;;;;;3.60;2.83;;;21.70;56.90;;;;;;4993375;28;20065;-73
2022/07/18 01:18:05;;;;;;;3.38;2.80;;;21.70;56.90;;;;;;4993198;28;20496;-73
2022/07/18 01:20:33;;;;;;;3.50;2.90;;;21.70;56.90;;;;;;4993388;28;20132;-73
2022/07/18 01:23:00;;;;;;;4.75;3.25;;;21.60;56.80;;;;;;4992918;28;20092;-73
2022/07/18 01:25:27;;;;;;;4.20;3.17;;;21.70;56.90;;;;;;4993342;28;20054;-73
2022/07/18 01:27:54;;;;;;;4.40;3.00;;;21.70;56.90;;;;;;4993604;28;20085;-73
2022/07/18 01:30:20;;;;;;;4.57;3.13;;;21.70;58.50;;;;;;4994121;28;20133;-73
2022/07/18 01:32:47;;;;;;;3.58;2.85;;;21.70;56.90;;;;;;4993761;28;20566;-73
2022/07/18 01:35:14;;;;;;;4.70;3.05;;;21.70;56.90;;;;;;4993141;28;20133;-73
2022/07/18 01:37:42;;;;;;;4.15;3.15;;;21.70;56.90;;;;;;4992867;28;20133;-73
2022/07/18 01:40:10;;;;;;;4.63;3.42;;;21.80;58.70;;;;;;4993220;28;20058;-73
2022/07/18 01:42:36;;;;;;;3.88;3.08;;;21.70;57.00;;;;;;4992646;28;20133;-73
2022/07/18 01:45:03;;;;;;;4.43;3.58;;;21.60;56.90;;;;;;4992783;28;20058;-73
2022/07/18 01:47:30;;;;;;;4.47;3.05;;;21.40;58.70;;;;;;4992618;28;20133;-73
2022/07/18 01:49:57;;;;;;;3.90;3.00;;;21.50;56.90;;;;;;4992902;28;20054;-73
2022/07/18 01:52:24;;;;;;;4.10;3.20;;;21.60;56.90;;;;;;4992783;28;20080;-73
2022/07/18 01:54:52;;;;;;;3.72;3.00;;;21.60;56.90;;;;;;4992593;28;20062;-73
2022/07/18 01:57:18;;;;;;;3.78;3.00;;;21.70;57.00;;;;;;4993512;28;20125;-73
2022/07/18 01:59:45;;;;;;;4.10;3.28;;;21.60;56.90;;;;;;4992592;28;20448;-73
2022/07/18 02:02:12;;;;;;;3.85;3.13;;;21.60;57.00;;;;;;4992215;28;20054;-73
2022/07/18 02:07:23;;;;;;;5.22;2.80;;;21.60;57.00;;;;;;4992912;28;20492;-73
2022/07/18 02:09:49;;;;;;;3.65;3.03;;;20.80;58.30;;;;;;4992340;28;20078;-73
2022/07/18 02:12:17;;;;;;;4.22;3.20;;;21.50;57.00;;;;;;4992132;28;20529;-73
2022/07/18 02:14:44;;;;;;;4.93;3.53;;;21.50;57.00;;;;;;4993303;28;20092;-73
2022/07/18 02:17:11;;;;;;;3.63;3.00;;;21.50;57.00;;;;;;4991964;28;20129;-73
2022/07/18 02:19:38;;;;;;;4.88;3.00;;;21.50;57.00;;;;;;4992379;28;20325;-73
2022/07/18 02:22:05;;;;;;;4.32;3.15;;;21.50;57.00;;;;;;4991926;28;20109;-73
2022/07/18 02:24:32;;;;;;;4.03;3.08;;;21.50;57.00;;;;;;4991356;28;20064;-73
2022/07/18 02:27:00;;;;;;;5.03;3.13;;;21.50;57.00;;;;;;4992178;28;20057;-73
2022/07/18 02:29:28;;;;;;;4.30;3.22;;;21.50;57.00;;;;;;4991594;28;20065;-72
2022/07/18 02:31:54;;;;;;;4.18;3.10;;;21.50;57.00;;;;;;4991957;28;20054;-72
2022/07/18 02:34:21;;;;;;;3.58;3.05;;;21.50;57.00;;;;;;4991784;28;20181;-73
2022/07/18 02:36:50;;;;;;;4.93;3.20;;;21.50;57.00;;;;;;4991992;28;20141;-73
2022/07/18 02:39:17;;;;;;;6.10;3.58;;;21.50;57.00;;;;;;4990355;28;20050;-73
2022/07/18 02:41:44;;;;;;;4.60;3.17;;;21.50;57.00;;;;;;4991289;28;20138;-73
2022/07/18 02:44:10;;;;;;;3.92;3.03;;;21.50;57.00;;;;;;4991587;28;20492;-73
2022/07/18 02:46:38;;;;;;;4.13;3.30;;;21.40;57.00;;;;;;4991789;28;20070;-73
2022/07/18 02:49:05;;;;;;;4.18;3.45;;;21.40;57.00;;;;;;4991541;28;20054;-73
2022/07/18 02:51:32;;;;;;;3.85;2.90;;;21.50;57.10;;;;;;4991499;28;20050;-73
2022/07/18 02:53:58;;;;;;;3.80;3.15;;;21.40;57.00;;;;;;4991212;28;20484;-73
2022/07/18 02:56:25;;;;;;;5.05;3.28;;;21.40;57.00;;;;;;4991627;28;20057;-73
2022/07/18 02:58:52;;;;;;;4.07;3.05;;;21.40;57.00;;;;;;4991271;28;20056;-73
2022/07/18 03:01:19;;;;;;;3.92;2.90;;;21.30;59.00;;;;;;4991216;28;20054;-73
2022/07/18 03:03:47;;;;;;;4.22;3.10;;;21.40;57.00;;;;;;4974875;28;20061;-73
2022/07/18 03:06:13;;;;;;;4.28;3.00;;;21.40;57.00;;;;;;4991369;28;20408;-73
2022/07/18 03:08:40;;;;;;;3.72;3.05;;;21.40;57.00;;;;;;4990551;28;20056;-73
2022/07/18 03:11:07;;;;;;;5.03;3.38;;;21.50;57.00;;;;;;4991205;28;20058;-73
2022/07/18 03:13:34;;;;;;;3.67;2.95;;;21.40;57.00;;;;;;4991043;28;20141;-73
2022/07/18 03:16:00;;;;;;;4.18;3.10;;;21.30;56.90;;;;;;4990978;28;20081;-73
2022/07/18 03:18:27;;;;;;;3.78;3.10;;;22.30;59.30;;;;;;4990923;28;20060;-73
2022/07/18 03:20:55;;;;;;;3.50;2.90;;;21.30;56.90;;;;;;4992330;28;20153;-73
2022/07/18 03:23:22;;;;;;;4.50;3.00;;;21.40;57.00;;;;;;4990643;28;20058;-73
2022/07/18 03:25:49;;;;;;;4.25;3.20;;;21.30;57.00;;;;;;4991140;28;20050;-73
2022/07/18 03:28:15;;;;;;;3.70;3.03;;;21.30;57.00;;;;;;4992476;28;20049;-73
2022/07/18 03:30:42;;;;;;;3.80;3.08;;;21.30;57.00;;;;;;4991038;28;20141;-73
2022/07/18 03:33:09;;;;;;;4.43;3.25;;;21.30;57.00;;;;;;4990443;28;20061;-73
2022/07/18 03:35:36;;;;;;;3.80;3.08;;;21.40;58.40;;;;;;4990967;28;20061;-73
2022/07/18 03:38:04;;;;;;;4.47;3.10;;;21.30;57.00;;;;;;4990452;28;20399;-73
2022/07/18 03:40:30;;;;;;;3.30;2.90;;;21.30;57.00;;;;;;4990783;28;20090;-73
2022/07/18 03:42:57;;;;;;;3.70;2.92;;;21.30;57.00;;;;;;4991579;28;20173;-73
2022/07/18 03:45:24;;;;;;;4.50;3.08;;;21.30;58.90;;;;;;4991961;28;20054;-73
2022/07/18 03:47:50;;;;;;;3.95;3.10;;;21.30;57.00;;;;;;4990540;28;20065;-73
2022/07/18 03:50:17;;;;;;;3.35;2.95;;;21.20;56.90;;;;;;4990378;28;20050;-73
2022/07/18 03:52:44;;;;;;;3.75;3.03;;;20.00;58.10;;;;;;4990119;28;20140;-73
2022/07/18 03:55:13;;;;;;;5.45;3.40;;;21.20;57.00;;;;;;4990653;28;20112;-73
2022/07/18 03:57:39;;;;;;;3.75;2.95;;;21.30;57.00;;;;;;4990645;28;20057;-73
2022/07/18 04:00:09;;;;;;;4.90;3.10;;;21.20;56.90;;;;;;4990598;28;20403;-73
2022/07/18 04:02:38;;;;;;;3.50;3.13;;;21.30;57.00;;;;;;4990302;28;20065;-73
2022/07/18 04:05:06;;;;;;;4.05;3.00;;;21.20;56.90;;;;;;4990486;28;20141;-73
2022/07/18 04:07:33;;;;;;;6.00;3.42;;;21.20;57.00;;;;;;4990488;28;20054;-73
2022/07/18 04:09:59;;;;;;;4.85;3.28;;;21.20;57.00;;;;;;4990421;28;20058;-73
2022/07/18 04:12:28;;;;;;;3.90;3.00;;;22.10;59.40;;;;;;4990444;28;20480;-73
2022/07/18 04:14:54;;;;;;;3.90;3.10;;;21.20;57.00;;;;;;4991346;28;20062;-73
2022/07/18 04:17:22;;;;;;;4.78;3.30;;;21.30;57.00;;;;;;4990260;28;20219;-73
2022/07/18 04:19:49;;;;;;;3.83;3.15;;;21.20;57.00;;;;;;4990599;28;20542;-73
2022/07/18 04:22:15;;;;;;;4.13;3.20;;;21.20;57.00;;;;;;4991425;28;20129;-73
2022/07/18 04:24:42;;;;;;;4.13;2.90;;;21.20;56.90;;;;;;4990025;28;20051;-73
2022/07/18 04:27:09;;;;;;;3.75;3.20;;;21.20;56.90;;;;;;4990276;28;20129;-73
2022/07/18 04:29:38;;;;;;;4.47;3.47;;;21.10;58.60;;;;;;4990032;28;20074;-73
2022/07/18 04:32:05;;;;;;;3.90;3.00;;;21.10;56.80;;;;;;4990223;28;20488;-73
2022/07/18 04:34:32;;;;;;;4.03;3.35;;;21.20;56.90;;;;;;4991314;28;20078;-73
2022/07/18 04:36:58;;;;;;;3.72;3.13;;;21.20;56.90;;;;;;4990342;28;20054;-73
2022/07/18 04:39:25;;;;;;;3.97;3.13;;;21.10;56.80;;;;;;4991427;28;20046;-73
2022/07/18 04:41:52;;;;;;;4.30;3.15;;;21.20;56.90;;;;;;4991101;28;20482;-73
2022/07/18 04:44:19;;;;;;;4.93;3.22;;;21.20;56.90;;;;;;4989641;28;20069;-73
2022/07/18 04:46:47;;;;;;;4.22;3.05;;;21.20;56.80;;;;;;4990343;28;20149;-73
2022/07/18 04:49:13;;;;;;;3.85;3.10;;;21.20;56.80;;;;;;4990274;28;20055;-73
2022/07/18 04:51:40;;;;;;;4.85;3.25;;;21.20;56.80;;;;;;4991488;28;20153;-73
2022/07/18 04:54:08;;;;;;;3.75;2.85;;;21.20;56.80;;;;;;4989976;28;20054;-73
2022/07/18 04:56:34;;;;;;;3.92;2.95;;;21.20;56.80;;;;;;4990151;28;20447;-73
2022/07/18 04:59:01;;;;;;;3.80;3.10;;;21.20;56.80;;;;;;4990668;28;20125;-73
2022/07/18 05:01:28;;;;;;;4.15;2.95;;;21.20;56.80;;;;;;4990081;28;20064;-73
2022/07/18 05:03:56;;;;;;;3.78;3.00;;;21.20;56.70;;;;;;4992884;28;20053;-73
2022/07/18 05:06:23;;;;;;;4.35;2.95;;;20.00;58.10;;;;;;4993659;28;20062;-73
2022/07/18 05:08:50;;;;;;;5.55;3.50;;;21.20;56.80;;;;;;4993468;28;20125;-73
2022/07/18 05:11:16;;;;;;;3.58;2.85;;;21.20;56.70;;;;;;4993332;28;20599;-73
2022/07/18 05:13:43;;;;;;;5.30;3.33;;;21.20;56.70;;;;;;4993130;28;20046;-73
2022/07/18 05:16:10;;;;;;;4.25;3.10;;;21.20;56.70;;;;;;4993579;28;20057;-73
2022/07/18 05:18:37;;;;;;;3.58;2.97;;;21.20;56.70;;;;;;4993243;28;20419;-73
2022/07/18 05:21:05;;;;;;;3.78;3.05;;;21.30;56.70;;;;;;4993204;28;20137;-73
2022/07/18 05:23:32;;;;;;;5.18;2.95;;;21.30;56.70;;;;;;4993090;28;20065;-73
2022/07/18 05:25:59;;;;;;;4.18;3.30;;;21.30;56.70;;;;;;4993042;28;20054;-73
2022/07/18 05:28:27;;;;;;;5.82;3.00;;;21.30;56.70;;;;;;4992768;28;20480;-73
2022/07/18 05:30:54;;;;;;;4.18;3.17;;;21.30;56.70;;;;;;4992794;28;20050;-73
2022/07/18 05:33:21;;;;;;;3.80;3.10;;;21.30;56.70;;;;;;4993165;28;20086;-73
2022/07/18 05:35:48;;;;;;;4.20;3.00;;;21.30;56.70;;;;;;4994109;28;20125;-73
2022/07/18 05:38:16;;;;;;;3.75;3.08;;;21.30;56.70;;;;;;4992973;28;20054;-73
2022/07/18 05:40:43;;;;;;;4.75;3.30;;;21.30;56.70;;;;;;4992821;28;20086;-73
2022/07/18 05:43:10;;;;;;;3.47;3.17;;;21.30;56.70;;;;;;4993623;28;20042;-73
2022/07/18 05:45:38;;;;;;;3.55;3.10;;;21.30;56.70;;;;;;4993054;28;20054;-73
2022/07/18 05:48:06;;;;;;;3.63;2.95;;;21.30;56.70;;;;;;4992652;28;20086;-73
2022/07/18 05:50:33;;;;;;;4.53;3.50;;;21.30;56.70;;;;;;4976790;28;20054;-73
2022/07/18 05:53:00;;;;;;;5.25;3.45;;;21.40;58.90;;;;;;4992597;28;20055;-73
2022/07/18 05:55:29;;;;;;;3.50;3.00;;;21.30;56.70;;;;;;4992574;28;20140;-73
2022/07/18 05:57:56;;;;;;;3.70;3.20;;;21.30;59.10;;;;;;4992461;28;20054;-73
2022/07/18 06:00:22;;;;;;;4.07;3.00;;;21.20;56.70;;;;;;4992155;28;20064;-73
2022/07/18 06:02:49;;;;;;;3.85;3.00;;;21.30;56.70;;;;;;4992307;28;20070;-73
2022/07/18 06:05:16;;;;;;;4.20;3.30;;;21.30;56.70;;;;;;4992767;28;20046;-73
2022/07/18 06:07:43;;;;;;;3.25;2.78;;;21.30;56.70;;;;;;4992739;28;20062;-73
2022/07/18 06:10:10;;;;;;;3.67;2.90;;;21.30;56.60;;;;;;4992500;28;20081;-73
2022/07/18 06:12:38;;;;;;;5.45;3.45;;;21.30;56.60;;;;;;4993598;28;20133;-73
2022/07/18 06:15:07;;;;;;;5.07;2.80;;;21.30;56.60;;;;;;4991846;28;20133;-73
2022/07/18 06:17:33;;;;;;;3.60;2.83;;;21.30;56.60;;;;;;4992181;28;20507;-73
2022/07/18 06:20:00;;;;;;;3.40;2.78;;;21.40;58.90;;;;;;4992236;28;20054;-73
2022/07/18 06:22:27;;;;;;;4.10;3.20;;;21.30;56.50;;;;;;4992209;28;20076;-73
2022/07/18 06:24:54;;;;;;;3.60;3.05;;;21.40;56.60;;;;;;4975959;28;20077;-73
2022/07/18 06:27:20;;;;;;;4.45;2.90;;;21.30;56.50;;;;;;4992041;28;20137;-73
2022/07/18 06:29:48;;;;;;;3.53;2.70;;;21.40;56.50;;;;;;4992117;28;20499;-73
2022/07/18 06:32:15;;;;;;;3.05;2.70;;;21.40;56.50;;;;;;4992637;28;20149;-73
2022/07/18 06:34:42;;;;;;;4.45;3.00;;;21.40;56.50;;;;;;4991728;28;20696;-73
2022/07/18 06:37:09;;;;;;;3.28;2.60;;;21.70;58.90;;;;;;4991806;28;20058;-73
2022/07/18 06:39:36;;;;;;;3.63;2.80;;;21.50;56.50;;;;;;4991344;28;20054;-73
2022/07/18 06:49:26;;;;;;;4.03;2.70;;;21.60;56.30;;;;;;4980685;28;20093;-73
2022/07/18 06:51:52;;;;;;;5.13;3.20;;;21.60;56.30;;;;;;4992822;28;20080;-73
2022/07/18 06:54:20;;;;;;;3.88;3.03;;;21.70;56.30;;;;;;4992329;28;20088;-73
2022/07/18 06:56:46;;;;;;;4.15;2.97;;;21.90;56.30;;;;;;4992376;28;20560;-73
2022/07/18 06:59:13;;;;;;;5.50;3.00;;;22.00;56.30;;;;;;4992265;28;20126;-73
2022/07/18 07:01:40;;;;;;;7.50;3.33;;;22.00;56.10;;;;;;4991282;28;20510;-73
2022/07/18 07:04:06;;;;;;;4.07;3.05;;;22.10;56.00;;;;;;4990679;28;20092;-73
2022/07/18 07:06:37;;;;;;;7.20;3.33;;;22.20;56.00;;;;;;4991847;28;20165;-73
2022/07/18 07:09:04;;;;;;;5.90;2.80;;;22.30;55.80;;;;;;4992462;28;20112;-73
2022/07/18 07:11:30;;;;;;;3.72;2.70;;;22.40;55.70;;;;;;4990925;28;20089;-72
2022/07/18 07:13:57;;;;;;;5.93;3.25;;;22.60;55.60;;;;;;4991073;28;20054;-73
2022/07/18 07:16:24;;;;;;;5.05;2.80;;;22.60;55.30;;;;;;4991570;28;20134;-73
2022/07/18 07:18:50;;;;;;;5.57;3.30;;;22.70;55.20;;;;;;4991129;28;20057;-73
2022/07/18 07:21:17;;;;;;;6.43;3.10;;;22.80;55.10;;;;;;4991265;28;20054;-72
2022/07/18 07:23:45;;;;;;;6.25;3.30;;;22.90;55.00;;;;;;4991066;28;20076;-73
2022/07/18 07:26:12;;;;;;;4.60;3.30;;;21.80;56.60;;;;;;4991828;28;20058;-74
2022/07/18 07:28:39;;;;;;;5.13;3.30;;;23.00;54.80;;;;;;4991234;28;20058;-72
2022/07/18 07:31:06;;;;;;;5.78;3.10;;;23.10;54.70;;;;;;4990214;28;20129;-73
2022/07/18 07:33:33;;;;;;;6.22;3.42;;;23.10;54.60;;;;;;4990708;28;20065;-73
2022/07/18 07:36:00;;;;;;;4.47;2.90;;;23.20;54.70;;;;;;4992021;28;20133;-73
2022/07/18 07:38:28;;;;;;;4.53;3.00;;;23.30;54.60;;;;;;4990431;28;20065;-73
2022/07/18 07:40:56;;;;;;;6.43;3.40;;;23.30;54.50;;;;;;4989885;28;20145;-73
2022/07/18 07:43:24;;;;;;;6.00;3.53;;;23.40;54.40;;;;;;4989381;28;20054;-73
2022/07/18 07:45:52;;;;;;;6.40;2.90;;;23.50;54.40;;;;;;4989888;28;20460;-73
2022/07/18 07:48:19;;;;;;;6.90;3.47;;;23.50;54.30;;;;;;4989921;28;20077;-73
2022/07/18 07:50:46;;;;;;;6.00;3.10;;;23.60;54.30;;;;;;4989986;28;20117;-73
2022/07/18 07:53:12;;;;;;;6.60;3.20;;;23.70;54.30;;;;;;4989580;28;20093;-73
2022/07/18 07:55:39;;;;;;;5.32;3.15;;;23.70;54.20;;;;;;4990879;28;20137;-73
2022/07/18 07:58:09;;;;;;;6.38;3.25;;;23.70;54.10;;;;;;4990955;28;20136;-73
2022/07/18 08:00:36;;;;;;;5.07;3.25;;;23.90;54.10;;;;;;4990434;28;20060;-74
2022/07/18 08:03:03;;;;;;;6.00;3.03;;;24.00;54.10;;;;;;4990703;28;20051;-73
2022/07/18 08:05:31;;;;;;;4.78;3.10;;;24.00;53.90;;;;;;4990944;28;20089;-73
2022/07/18 08:07:58;;;;;;;6.47;2.95;;;24.10;53.90;;;;;;4991598;28;20052;-73
2022/07/18 08:10:24;;;;;;;4.70;2.88;;;24.10;53.70;;;;;;4990396;28;20129;-72
2022/07/18 08:12:52;;;;;;;5.03;2.90;;;24.20;53.70;;;;;;4990626;28;20506;-73
2022/07/18 08:15:20;;;;;;;4.90;3.03;;;24.30;53.60;;;;;;4990582;28;20082;-72
2022/07/18 08:17:46;;;;;;;5.40;3.20;;;24.30;53.50;;;;;;4991064;28;20133;-72
2022/07/18 08:20:13;;;;;;;7.15;3.33;;;24.40;53.40;;;;;;4990296;28;20496;-72
2022/07/18 08:22:53;;;;;;;6.07;3.20;;;24.50;53.40;;;;;;4990114;28;20141;-72
2022/07/18 08:25:20;;;;;;;6.85;3.30;;;24.60;55.60;;;;;;4990718;28;20097;-73
2022/07/18 08:27:47;;;;;;;4.90;3.10;;;24.50;53.30;;;;;;4990635;28;20510;-72
2022/07/18 08:30:14;;;;;;;4.70;3.25;;;24.60;53.30;;;;;;4990210;28;20060;-72
2022/07/18 08:32:42;;;;;;;4.07;3.00;;;24.60;53.20;;;;;;4989775;28;20054;-73
2022/07/18 08:35:09;;;;;;;3.63;2.90;;;24.60;53.10;;;;;;4990075;28;20149;-73
2022/07/18 08:37:35;;;;;;;4.70;2.88;;;24.70;53.10;;;;;;4991630;28;20571;-73
2022/07/18 08:40:02;;;;;;;12.30;3.40;;;24.70;53.10;;;;;;4993692;28;20061;-73
2022/07/18 08:42:29;;;;;;;8.07;3.55;;;24.70;53.10;;;;;;5010282;28;20490;-73
2022/07/18 08:44:56;;;;;;;7.13;3.50;;;24.70;53.00;;;;;;4993778;28;20065;-73
2022/07/18 08:47:23;;;;;;;12.95;3.70;;;24.70;53.00;;;;;;4994238;28;20141;-73
2022/07/18 08:49:52;;;;;;;11.13;4.05;;;24.70;53.00;;;;;;4994073;28;20141;-73
2022/07/18 08:52:19;;;;;;;8.77;3.72;;;24.70;53.00;;;;;;4994155;28;20129;-73
2022/07/18 08:54:46;;;;;;;13.30;4.15;;;24.70;52.90;;;;;;4993846;28;20048;-73
2022/07/18 08:57:13;;;;;;;11.55;4.25;;;24.70;53.00;;;;;;4977875;28;20105;-73
2022/07/18 08:59:40;;;;;;;11.45;3.92;;;24.80;53.00;;;;;;4993064;28;20406;-73
2022/07/18 09:02:07;;;;;;;13.45;4.45;;;25.00;55.10;;;;;;4993758;28;20052;-73
2022/07/18 09:04:38;;;;;;;13.55;4.10;;;24.60;53.00;;;;;;4993733;28;20058;-73
2022/07/18 09:07:07;;;;;;;10.30;4.00;;;24.60;53.00;;;;;;4993493;28;20061;-74
2022/07/18 09:09:33;;;;;;;8.95;4.05;;;24.60;53.00;;;;;;4993566;28;20050;-73
2022/07/18 09:12:01;;;;;;;9.57;4.05;;;24.60;53.00;;;;;;4993737;28;20054;-74
2022/07/18 09:14:33;;;;;;;11.70;4.35;;;24.70;53.10;;;;;;4993451;28;20054;-73
2022/07/18 09:17:08;;;;;;;9.55;3.97;;;24.70;53.10;;;;;;5009266;28;20050;-74
2022/07/18 09:19:35;;;;;;;8.75;4.50;;;24.70;53.10;;;;;;4993491;28;20050;-73
2022/07/18 09:22:30;;;;;;;8.82;3.72;;;24.70;53.10;;;;;;4994501;28;20086;-74
2022/07/18 09:24:58;;;;;;;;;;;24.70;53.20;;;;;;4948901;28;20456;-73
2022/07/18 09:27:26;;;;;;;10.85;3.50;;;24.60;53.40;;;;;;4993421;28;20008;-73
2022/07/18 09:30:18;;;;;;;9.43;3.90;;;24.60;53.20;;;;;;4993209;28;20134;-73
2022/07/18 09:32:46;;;;;;;8.23;3.60;;;24.60;53.20;;;;;;4993186;28;20113;-73
2022/07/18 09:35:15;;;;;;;9.70;3.65;;;24.50;53.10;;;;;;4993504;28;20543;-74
2022/07/18 09:37:53;;;;;;;7.28;3.35;;;24.60;53.20;;;;;;4976692;28;20510;-73
2022/07/18 09:40:21;;;;;;;6.47;3.75;;;24.50;53.20;;;;;;4993192;28;20057;-73
2022/07/18 09:42:50;;;;;;;9.07;3.63;;;24.30;54.80;;;;;;4993143;28;20137;-73
2022/07/18 09:45:16;;;;;;;10.85;4.07;;;24.50;53.20;;;;;;4993240;28;20062;-73
2022/07/18 09:47:51;;;;;;;10.45;3.90;;;24.50;53.20;;;;;;4992677;28;20064;-73
2022/07/18 09:50:22;;;;;;;7.88;3.50;;;24.50;53.30;;;;;;4992745;28;20054;-73
2022/07/18 09:52:58;;;;;;;8.10;3.92;;;24.50;53.30;;;;;;4992709;28;20054;-73
2022/07/18 09:55:25;;;;;;;5.95;3.20;;;24.50;53.30;;;;;;4993054;28;20062;-74
2022/07/18 09:58:03;;;;;;;8.93;3.45;;;24.50;53.40;;;;;;4992873;28;20527;-73
2022/07/18 10:00:31;;;;;;;7.38;3.33;;;24.50;53.30;;;;;;4992367;28;20124;-73
2022/07/18 10:02:59;;;;;;;5.95;2.95;;;24.40;53.30;;;;;;4992646;28;20442;-73
2022/07/18 10:05:28;;;;;;;8.13;3.25;;;24.50;53.40;;;;;;4992417;28;20065;-73
2022/07/18 10:07:54;;;;;;;6.25;2.90;;;24.70;55.30;;;;;;4992916;28;20069;-73
2022/07/18 10:10:24;;;;;;;5.22;3.15;;;24.50;53.40;;;;;;4993830;28;20049;-73
2022/07/18 10:12:52;;;;;;;7.80;3.05;;;24.50;53.40;;;;;;4992371;28;20527;-73
2022/07/18 10:15:21;;;;;;;6.57;3.22;;;24.50;53.40;;;;;;4992529;28;20057;-73
2022/07/18 10:17:48;;;;;;;5.57;2.95;;;24.40;53.30;;;;;;4992421;28;20054;-73
2022/07/18 10:20:15;;;;;;;6.30;2.88;;;24.50;53.40;;;;;;4991806;28;20420;-73
2022/07/18 10:22:42;;;;;;;5.63;3.22;;;24.50;53.40;;;;;;4991866;28;20085;-74
2022/07/18 10:25:10;;;;;;;6.18;2.85;;;24.50;54.00;;;;;;4992123;28;20241;-73
2022/07/18 10:27:52;;;;;;;5.95;3.10;;;24.50;53.40;;;;;;4992092;28;20054;-73
2022/07/18 10:30:29;;;;;;;6.07;2.90;;;25.30;56.40;;;;;;4991939;28;20056;-73
2022/07/18 10:32:56;;;;;;;5.95;3.00;;;24.50;53.50;;;;;;4991401;28;20056;-73
2022/07/18 10:35:28;;;;;;;5.05;2.90;;;24.50;54.10;;;;;;4993024;28;20054;-73
2022/07/18 10:38:01;;;;;;;4.45;2.70;;;24.50;53.50;;;;;;4989679;28;20054;-73
2022/07/18 10:40:28;;;;;;;5.18;2.80;;;24.50;53.40;;;;;;4991611;28;20744;-73
2022/07/18 10:43:33;;;;;;;6.13;2.70;;;24.50;53.50;;;;;;4991735;28;20145;-72
2022/07/18 10:45:59;;;;;;;3.80;2.63;;;24.50;53.50;;;;;;4991833;28;20137;-72
2022/07/18 10:48:48;;;;;;;7.20;2.90;;;24.50;53.40;;;;;;4991684;28;20084;-72
2022/07/18 10:51:16;;;;;;;4.53;2.90;;;24.50;53.40;;;;;;4985884;28;20507;-72
2022/07/18 10:54:00;;;;;;;6.70;2.92;;;24.60;53.50;;;;;;4990587;28;20066;-72
2022/07/18 10:57:00;;;;;;;3.70;2.53;;;24.60;53.50;;;;;;4992662;28;20050;-72
2022/07/18 10:59:29;;;;;;;5.28;2.53;;;24.60;53.50;;;;;;4991314;28;20057;-72
2022/07/18 11:01:56;;;;;;;6.22;2.65;;;24.60;53.40;;;;;;4990699;28;20061;-72
2022/07/18 11:04:23;;;;;;;5.28;3.05;;;24.60;53.40;;;;;;4991283;28;20105;-73
2022/07/18 11:06:56;;;;;;;4.78;2.53;;;24.60;53.40;;;;;;4991360;28;20062;-72
2022/07/18 11:09:33;;;;;;;5.35;2.92;;;24.70;53.40;;;;;;4991671;28;20480;-72
2022/07/18 11:12:29;;;;;;;3.55;2.40;;;24.70;53.40;;;;;;4990987;28;20511;-72
2022/07/18 11:15:05;;;;;;;2.97;2.13;;;24.40;55.20;;;;;;4991784;28;20053;-72
2022/07/18 11:18:01;;;;;;;4.10;2.63;;;24.60;53.30;;;;;;4990858;28;20050;-75
2022/07/18 11:20:36;;;;;;;4.07;2.67;;;24.70;53.40;;;;;;4991329;28;20050;-73
2022/07/18 11:23:03;;;;;;;;;;;24.70;53.30;;;;;;5008156;28;20061;-73
2022/07/18 11:25:30;;;;;;;4.47;2.65;;;24.70;53.60;;;;;;4991255;28;19921;-73
2022/07/18 11:27:57;;;;;;;7.38;2.65;;;25.70;56.30;;;;;;4990722;28;20089;-73
2022/07/18 11:30:25;;;;;;;3.80;2.10;;;24.60;53.40;;;;;;4990273;28;20060;-73
2022/07/18 11:32:52;;;;;;;3.30;2.33;;;24.70;53.40;;;;;;4989595;28;20054;-73
2022/07/18 11:35:23;;;;;;;3.72;2.13;;;24.70;53.30;;;;;;4992203;28;20133;-73
2022/07/18 11:37:50;;;;;;;3.97;2.20;;;24.70;53.30;;;;;;4990794;28;20060;-73
2022/07/18 11:40:17;;;;;;;4.00;2.10;;;24.70;53.30;;;;;;4990900;28;20559;-73
2022/07/18 11:42:43;;;;;;;3.90;2.35;;;24.80;53.30;;;;;;4990841;28;20129;-73
2022/07/18 11:45:11;;;;;;;4.65;2.13;;;24.80;53.30;;;;;;4990143;28;20125;-73
2022/07/18 11:47:41;;;;;;;3.30;2.20;;;24.80;53.30;;;;;;4990515;28;20054;-73
2022/07/18 11:50:08;;;;;;;3.38;2.28;;;24.80;53.30;;;;;;4990842;28;20500;-72
2022/07/18 11:52:35;;;;;;;3.08;2.28;;;24.80;53.30;;;;;;4990916;28;20054;-73
2022/07/18 11:55:03;;;;;;;3.53;2.00;;;24.80;53.30;;;;;;4990709;28;20072;-73
2022/07/18 11:57:31;;;;;;;4.13;2.10;;;24.80;53.30;;;;;;4990774;28;20054;-73
2022/07/18 11:59:58;;;;;;;2.67;2.15;;;24.80;53.30;;;;;;4991507;28;20088;-73
2022/07/18 12:03:02;;;;;;;3.35;2.10;;;24.90;53.30;;;;;;4990230;28;20086;-73
2022/07/18 12:05:34;;;;;;;4.00;2.15;;;24.80;53.20;;;;;;4971212;28;20065;-73
2022/07/18 12:08:00;;;;;;;3.15;2.20;;;24.90;53.30;;;;;;4970989;28;20058;-73
2022/07/18 12:10:27;;;;;;;2.92;2.00;;;24.80;53.20;;;;;;4988191;28;20133;-73
2022/07/18 12:12:54;;;;;;;2.95;2.20;;;24.90;53.30;;;;;;4993241;28;20156;-73
2022/07/18 12:15:21;;;;;;;2.83;2.08;;;24.90;53.20;;;;;;4994803;28;20122;-73
2022/07/18 12:17:50;;;;;;;5.43;2.50;;;24.90;53.30;;;;;;4994345;28;20057;-72
2022/07/18 12:20:19;;;;;;;4.15;2.17;;;24.90;53.20;;;;;;4994515;28;20072;-72
2022/07/18 12:23:07;;;;;;;2.40;1.90;;;24.90;53.20;;;;;;4994105;28;20144;-73
2022/07/18 12:25:40;;;;;;;3.13;2.10;;;24.80;53.30;;;;;;4994708;28;20088;-72
2022/07/18 12:28:14;;;;;;;2.78;2.05;;;24.90;53.30;;;;;;4994072;28;20160;-72
2022/07/18 12:30:41;;;;;;;3.63;1.83;;;24.90;53.30;;;;;;4994429;28;20137;-72
2022/07/18 12:33:08;;;;;;;2.50;1.80;;;24.90;53.30;;;;;;4994247;28;20549;-72
2022/07/18 12:35:36;;;;;;;3.33;1.90;;;24.90;53.30;;;;;;4995086;28;20046;-72
2022/07/18 12:38:04;;;;;;;3.25;2.00;;;24.90;53.30;;;;;;4991571;28;20050;-72
2022/07/18 12:40:42;;;;;;;3.33;2.10;;;24.90;53.30;;;;;;4994109;28;20133;-72
2022/07/18 12:43:10;;;;;;;2.67;1.85;;;24.90;53.30;;;;;;4993853;28;20472;-72
2022/07/18 12:45:37;;;;;;;3.30;1.92;;;24.90;53.30;;;;;;4993665;28;20137;-73
2022/07/18 12:48:04;;;;;;;2.40;1.80;;;24.90;53.30;;;;;;4994284;28;20088;-72
2022/07/18 12:50:31;;;;;;;2.20;1.65;;;24.90;53.30;;;;;;4995033;28;20136;-73
2022/07/18 12:52:58;;;;;;;2.42;1.90;;;24.90;53.30;;;;;;4993675;28;20129;-72
2022/07/18 12:55:25;;;;;;;2.13;1.83;;;24.90;53.30;;;;;;4993643;28;20061;-73
2022/07/18 12:57:53;;;;;;;3.17;2.00;;;24.90;53.30;;;;;;4995288;28;20129;-73
2022/07/18 13:00:19;;;;;;;2.65;1.90;;;25.00;53.30;;;;;;4993961;28;20077;-73
2022/07/18 13:02:47;;;;;;;2.22;1.80;;;24.90;53.30;;;;;;4994455;28;20133;-73
2022/07/18 13:05:14;;;;;;;2.72;2.10;;;25.00;53.30;;;;;;5010201;28;20054;-73
2022/07/18 13:07:40;;;;;;;3.40;1.60;;;25.00;53.30;;;;;;4993691;28;20064;-73